Time;durP1;ratioP1;P1;durP2;ratioP2;P2;SDS_P1;SDS_P2;PMS_P1;PMS_P2;Temp;Humidity;BMP_temperature;BMP_pressure;BME280_temperature;BME280_humidity;BME280_pressure;Samples;Min_cycle;Max_cycle;Signal;HPM_P1;HPM_P2
2022/10/08 00:01:39;;;;;;;7.53;3.08;;;12.30;92.20;;;;;;5000027;28;20353;-79
2022/10/08 00:04:05;;;;;;;3.78;2.78;;;12.30;92.20;;;;;;4985280;28;20048;-79
2022/10/08 00:06:32;;;;;;;3.83;3.42;;;12.30;92.30;;;;;;4994928;28;20204;-79
2022/10/08 00:09:03;;;;;;;5.40;2.88;;;12.30;92.40;;;;;;4994341;28;20169;-79
2022/10/08 00:11:33;;;;;;;5.40;2.88;;;12.30;92.40;;;;;;5001399;28;20072;-81
2022/10/08 00:14:03;;;;;;;8.65;3.60;;;12.30;92.50;;;;;;4992120;28;20105;-81
2022/10/08 00:16:29;;;;;;;4.22;3.30;;;12.40;92.50;;;;;;4999566;28;20494;-81
2022/10/08 00:19:02;;;;;;;4.30;2.80;;;12.30;92.40;;;;;;4995028;28;20076;-81
2022/10/08 00:21:32;;;;;;;6.95;2.95;;;12.30;92.40;;;;;;5001406;28;20034;-81
2022/10/08 00:24:00;;;;;;;4.88;2.97;;;12.30;92.40;;;;;;5001014;28;20030;-82
2022/10/08 00:26:28;;;;;;;4.60;3.20;;;12.30;92.40;;;;;;4997875;28;20026;-82
2022/10/08 00:28:57;;;;;;;5.05;2.90;;;12.30;92.30;;;;;;5000243;28;20107;-82
2022/10/08 00:31:25;;;;;;;5.45;2.90;;;12.30;92.30;;;;;;4999986;28;20030;-82
2022/10/08 00:33:53;;;;;;;4.57;2.80;;;12.20;92.30;;;;;;4995402;28;20030;-82
2022/10/08 00:36:20;;;;;;;3.85;2.47;;;12.20;92.00;;;;;;4997188;28;20108;-79
2022/10/08 00:38:46;;;;;;;3.15;2.67;;;12.10;91.30;;;;;;4995475;28;20044;-79
2022/10/08 00:41:22;;;;;;;7.47;2.90;;;12.00;90.40;;;;;;4973806;28;20025;-79
2022/10/08 00:43:53;;;;;;;3.30;2.78;;;11.90;90.10;;;;;;4998791;28;20026;-78
2022/10/08 00:46:22;;;;;;;6.43;3.20;;;11.90;90.10;;;;;;4995269;28;20033;-79
2022/10/08 00:49:00;;;;;;;7.30;2.88;;;11.80;90.20;;;;;;4997166;28;20784;-79
2022/10/08 00:51:26;;;;;;;5.55;2.95;;;11.70;89.70;;;;;;4995686;28;20041;-79
2022/10/08 00:53:52;;;;;;;3.08;2.78;;;11.60;89.80;;;;;;4994272;28;20095;-79
2022/10/08 00:56:20;;;;;;;3.85;2.60;;;11.50;90.00;;;;;;4993511;28;20828;-79
2022/10/08 00:58:48;;;;;;;6.57;2.70;;;11.40;90.30;;;;;;4999473;28;20042;-79
2022/10/08 01:01:13;;;;;;;5.53;3.03;;;11.30;90.50;;;;;;4990902;28;20505;-79
2022/10/08 01:03:39;;;;;;;8.48;3.42;;;11.20;90.60;;;;;;4996789;28;20036;-79
2022/10/08 01:06:48;;;;;;;6.78;2.67;;;11.20;90.80;;;;;;4998549;28;20469;-79
2022/10/08 01:09:23;;;;;;;9.75;3.70;;;11.10;91.10;;;;;;4981293;28;20037;-78
2022/10/08 01:12:04;;;;;;;5.13;3.05;;;11.10;91.70;;;;;;4996164;28;20355;-79
2022/10/08 01:14:49;;;;;;;8.32;4.93;;;11.00;92.30;;;;;;4987459;28;20034;-78
2022/10/08 01:17:23;;;;;;;7.13;3.75;;;11.00;93.00;;;;;;4994961;28;20067;-78
2022/10/08 01:20:17;;;;;;;6.88;4.05;;;11.10;93.50;;;;;;4997356;28;20882;-78
2022/10/08 01:23:03;;;;;;;7.28;4.15;;;11.20;93.90;;;;;;5000105;28;20045;-78
2022/10/08 01:25:48;;;;;;;;;;;11.30;94.20;;;;;;4996323;28;20041;-78
2022/10/08 01:28:21;;;;;;;7.00;3.53;;;11.40;94.40;;;;;;4995740;28;19920;-78
2022/10/08 01:31:10;;;;;;;7.75;3.75;;;11.40;94.30;;;;;;4994652;28;20032;-78
2022/10/08 01:33:48;;;;;;;6.03;3.63;;;11.50;94.40;;;;;;4999691;28;20088;-79
2022/10/08 01:36:17;;;;;;;7.72;4.03;;;11.60;94.50;;;;;;4998932;28;20132;-79
2022/10/08 01:38:50;;;;;;;8.10;3.90;;;11.60;94.40;;;;;;4999391;28;20095;-79
2022/10/08 01:41:19;;;;;;;7.75;3.95;;;11.70;94.40;;;;;;4993202;28;20038;-78
2022/10/08 01:43:50;;;;;;;6.55;4.22;;;11.70;94.30;;;;;;4999117;28;20058;-79
2022/10/08 01:46:25;;;;;;;7.35;4.10;;;11.70;94.30;;;;;;4995053;28;20037;-79
2022/10/08 01:48:52;;;;;;;6.25;3.78;;;11.80;94.30;;;;;;4997789;28;20774;-79
2022/10/08 01:51:36;;;;;;;5.32;4.18;;;11.80;94.30;;;;;;4996310;28;20045;-78
2022/10/08 01:54:05;;;;;;;8.30;3.80;;;11.80;94.30;;;;;;4999728;28;20042;-79
2022/10/08 01:56:35;;;;;;;4.45;3.10;;;11.90;94.30;;;;;;5001152;28;20046;-79
2022/10/08 01:59:11;;;;;;;8.23;4.18;;;11.90;94.30;;;;;;4991323;28;20605;-79
2022/10/08 02:01:58;;;;;;;5.97;3.83;;;11.90;94.20;;;;;;4997904;28;20026;-79
2022/10/08 02:04:32;;;;;;;7.40;4.00;;;11.90;94.10;;;;;;4997554;28;20120;-79
2022/10/08 02:07:02;;;;;;;5.13;3.28;;;11.90;94.20;;;;;;5003128;28;20109;-79
2022/10/08 02:09:31;;;;;;;5.60;3.38;;;11.90;94.20;;;;;;4998855;28;20809;-79
2022/10/08 02:11:56;;;;;;;6.50;3.28;;;11.90;94.20;;;;;;4984069;28;20049;-79
2022/10/08 02:14:25;;;;;;;7.68;4.07;;;12.00;94.10;;;;;;4993265;28;20038;-79
2022/10/08 02:17:01;;;;;;;7.15;4.05;;;12.00;94.00;;;;;;4997674;28;20512;-79
2022/10/08 02:19:53;;;;;;;7.20;4.00;;;12.10;94.30;;;;;;4999388;28;20080;-79
2022/10/08 02:22:21;;;;;;;7.63;3.67;;;12.10;94.20;;;;;;5002701;28;20025;-79
2022/10/08 02:25:13;;;;;;;5.22;3.42;;;12.10;94.20;;;;;;4985601;28;20025;-81
2022/10/08 02:28:04;;;;;;;6.13;3.30;;;12.10;94.20;;;;;;4991081;28;20041;-81
2022/10/08 02:30:39;;;;;;;8.02;3.40;;;12.10;94.20;;;;;;5002848;28;20037;-81
2022/10/08 02:33:14;;;;;;;6.80;3.97;;;12.10;94.20;;;;;;4998100;28;20049;-81
2022/10/08 02:35:52;;;;;;;8.07;3.97;;;12.10;94.10;;;;;;5000195;28;20045;-81
2022/10/08 02:38:35;;;;;;;6.65;3.17;;;12.20;94.10;;;;;;5003445;28;20133;-81
2022/10/08 02:41:04;;;;;;;5.57;3.80;;;12.20;94.00;;;;;;4994495;28;20038;-81
2022/10/08 02:43:33;;;;;;;10.00;3.95;;;12.20;93.90;;;;;;4997814;28;20136;-81
2022/10/08 02:46:06;;;;;;;6.55;3.35;;;12.20;94.00;;;;;;5001793;28;20026;-81
2022/10/08 02:48:34;;;;;;;5.72;3.22;;;12.20;94.00;;;;;;4996653;28;20033;-81
2022/10/08 02:51:05;;;;;;;6.90;3.40;;;12.10;94.00;;;;;;4995801;28;20026;-81
2022/10/08 02:53:35;;;;;;;4.93;3.40;;;12.20;94.10;;;;;;4980623;28;20482;-81
2022/10/08 02:56:23;;;;;;;4.78;3.15;;;12.20;94.10;;;;;;5001179;28;20081;-81
2022/10/08 02:58:49;;;;;;;6.03;3.10;;;12.20;94.00;;;;;;5000346;28;20847;-81
2022/10/08 03:01:25;;;;;;;4.55;3.22;;;12.20;94.00;;;;;;5001539;28;20033;-81
2022/10/08 03:04:21;;;;;;;5.38;3.22;;;12.20;94.10;;;;;;5001856;28;20390;-81
2022/10/08 03:06:48;;;;;;;3.17;2.83;;;12.20;94.20;;;;;;4979949;28;20038;-81
2022/10/08 03:09:17;;;;;;;5.13;3.20;;;12.20;94.20;;;;;;5002293;28;20353;-81
2022/10/08 03:11:43;;;;;;;4.35;3.22;;;12.30;94.30;;;;;;4984803;28;20109;-81
2022/10/08 03:14:13;;;;;;;4.70;2.95;;;12.30;94.20;;;;;;5002264;28;20112;-81
2022/10/08 03:16:44;;;;;;;6.32;3.60;;;12.30;94.20;;;;;;4992696;28;20034;-81
2022/10/08 03:19:12;;;;;;;4.57;3.10;;;12.30;94.10;;;;;;4992491;28;20040;-81
2022/10/08 03:21:40;;;;;;;4.22;2.97;;;12.30;94.10;;;;;;4994474;28;20022;-81
2022/10/08 03:24:08;;;;;;;7.22;3.85;;;12.30;94.20;;;;;;4998588;28;20034;-80
2022/10/08 03:26:34;;;;;;;5.20;3.50;;;12.30;94.30;;;;;;5003122;28;20037;-78
2022/10/08 03:28:59;;;;;;;6.10;3.53;;;12.30;94.20;;;;;;4993268;28;20030;-78
2022/10/08 03:31:25;;;;;;;4.68;3.22;;;12.30;94.20;;;;;;4993087;28;20045;-79
2022/10/08 03:33:52;;;;;;;6.32;3.15;;;12.40;94.20;;;;;;4993982;28;20022;-78
2022/10/08 03:36:20;;;;;;;5.57;2.95;;;12.40;94.20;;;;;;4997838;28;20041;-78
2022/10/08 03:38:46;;;;;;;6.65;3.42;;;12.40;94.30;;;;;;4995697;28;20040;-79
2022/10/08 03:41:12;;;;;;;3.95;2.97;;;12.40;94.60;;;;;;4997061;28;20038;-78
2022/10/08 03:43:38;;;;;;;5.32;3.50;;;12.50;94.40;;;;;;4997916;28;20018;-79
2022/10/08 03:46:04;;;;;;;6.85;3.45;;;12.40;94.40;;;;;;4997702;28;20029;-78
2022/10/08 03:48:31;;;;;;;5.05;3.10;;;12.50;94.40;;;;;;5001524;28;20772;-78
2022/10/08 03:51:02;;;;;;;7.00;3.97;;;12.60;94.40;;;;;;4997431;28;20453;-78
2022/10/08 03:53:32;;;;;;;5.82;3.50;;;12.60;94.40;;;;;;4996583;28;20034;-79
2022/10/08 03:56:02;;;;;;;5.18;3.20;;;12.60;94.30;;;;;;4993910;28;20053;-78
2022/10/08 03:58:29;;;;;;;5.50;3.55;;;12.60;94.20;;;;;;4993376;28;20828;-78
2022/10/08 04:00:59;;;;;;;7.25;3.42;;;12.70;94.20;;;;;;4993005;28;20030;-78
2022/10/08 04:03:26;;;;;;;5.78;3.30;;;12.70;94.10;;;;;;4996434;28;20026;-78
2022/10/08 04:05:52;;;;;;;6.55;3.20;;;12.60;94.00;;;;;;4976850;28;20088;-79
2022/10/08 04:08:18;;;;;;;5.90;3.10;;;12.60;94.00;;;;;;5000016;28;20703;-78
2022/10/08 04:10:43;;;;;;;5.47;2.80;;;12.60;94.00;;;;;;4995692;28;20033;-76
2022/10/08 04:13:09;;;;;;;7.32;3.42;;;12.70;94.00;;;;;;5001294;28;20512;-78
2022/10/08 04:15:35;;;;;;;5.05;2.90;;;12.60;94.00;;;;;;4983642;28;20030;-77
2022/10/08 04:18:01;;;;;;;5.50;2.70;;;12.60;94.00;;;;;;4996844;28;20030;-77
2022/10/08 04:20:27;;;;;;;5.68;3.00;;;12.60;94.00;;;;;;4989769;28;20080;-77
2022/10/08 04:22:52;;;;;;;5.97;3.20;;;12.60;94.00;;;;;;4988886;28;20030;-76
2022/10/08 04:25:18;;;;;;;6.53;3.10;;;12.60;93.90;;;;;;4999441;28;20512;-77
2022/10/08 04:27:47;;;;;;;7.32;3.67;;;12.60;93.90;;;;;;4995956;28;20030;-76
2022/10/08 04:30:14;;;;;;;3.88;2.88;;;12.60;93.90;;;;;;4991259;28;20393;-77
2022/10/08 04:32:40;;;;;;;7.40;3.45;;;12.50;93.90;;;;;;4995553;28;20168;-77
2022/10/08 04:35:06;;;;;;;6.05;3.00;;;12.50;93.90;;;;;;4995082;28;20569;-77
2022/10/08 04:37:32;;;;;;;5.63;3.30;;;12.50;94.00;;;;;;4993720;28;20731;-77
2022/10/08 04:39:58;;;;;;;7.53;3.25;;;12.50;94.00;;;;;;4991634;28;20052;-76
2022/10/08 04:42:24;;;;;;;4.47;3.40;;;12.50;94.00;;;;;;4995752;28;20564;-76
2022/10/08 04:44:50;;;;;;;5.00;3.13;;;12.50;94.00;;;;;;4997422;28;20945;-76
2022/10/08 04:47:15;;;;;;;3.75;2.85;;;12.40;93.90;;;;;;4998113;28;20036;-77
2022/10/08 04:49:41;;;;;;;5.47;3.30;;;12.40;93.90;;;;;;4988977;28;20037;-77
2022/10/08 04:52:07;;;;;;;3.88;2.72;;;12.40;93.90;;;;;;4995278;28;20756;-76
2022/10/08 04:54:33;;;;;;;4.50;2.97;;;12.30;94.00;;;;;;4995592;28;20034;-77
2022/10/08 04:56:58;;;;;;;4.75;3.28;;;12.30;94.00;;;;;;4998197;28;20030;-77
2022/10/08 04:59:24;;;;;;;6.07;3.33;;;12.30;94.10;;;;;;5004259;28;20037;-76
2022/10/08 05:01:53;;;;;;;4.57;2.47;;;12.30;94.10;;;;;;5003912;28;20752;-76
2022/10/08 05:04:19;;;;;;;5.40;3.20;;;12.20;94.10;;;;;;4999797;28;20034;-76
2022/10/08 05:06:44;;;;;;;4.28;2.95;;;12.20;94.20;;;;;;4994643;28;20089;-76
2022/10/08 05:09:10;;;;;;;4.53;3.15;;;12.20;94.30;;;;;;4999311;28;20014;-76
2022/10/08 05:11:36;;;;;;;4.28;3.05;;;12.20;94.30;;;;;;4995406;28;20454;-77
2022/10/08 05:14:02;;;;;;;4.32;3.10;;;12.20;94.30;;;;;;5004463;28;20048;-76
2022/10/08 05:16:28;;;;;;;3.20;2.90;;;12.20;94.30;;;;;;5000070;28;20042;-76
2022/10/08 05:18:54;;;;;;;6.13;3.70;;;12.30;94.30;;;;;;4999113;28;20547;-76
2022/10/08 05:21:23;;;;;;;5.35;2.88;;;12.30;94.30;;;;;;4997835;28;20029;-76
2022/10/08 05:24:01;;;;;;;6.28;3.30;;;12.20;94.30;;;;;;4998063;28;20140;-77
2022/10/08 05:26:30;;;;;;;8.57;3.28;;;12.20;94.40;;;;;;4996233;28;20040;-76
2022/10/08 05:28:57;;;;;;;4.35;2.90;;;12.20;94.40;;;;;;4999685;28;20445;-77
2022/10/08 05:31:25;;;;;;;4.00;2.85;;;12.20;94.50;;;;;;4999568;28;20038;-76
2022/10/08 05:33:51;;;;;;;5.28;3.05;;;12.20;94.50;;;;;;5001752;28;20038;-76
2022/10/08 05:36:20;;;;;;;6.55;3.30;;;12.20;94.60;;;;;;4995030;28;20125;-76
2022/10/08 05:38:46;;;;;;;6.65;3.63;;;12.20;94.60;;;;;;4997287;28;20437;-76
2022/10/08 05:41:15;;;;;;;4.55;3.22;;;12.20;94.60;;;;;;4995228;28;20030;-76
2022/10/08 05:43:41;;;;;;;4.35;2.70;;;12.20;94.60;;;;;;4983132;28;20030;-76
2022/10/08 05:46:07;;;;;;;5.20;3.13;;;12.20;94.60;;;;;;4997840;28;20026;-76
2022/10/08 05:48:33;;;;;;;5.03;3.80;;;12.20;94.50;;;;;;4996927;28;20030;-77
2022/10/08 05:51:04;;;;;;;8.57;3.00;;;12.20;94.40;;;;;;4995047;28;20034;-76
2022/10/08 05:53:30;;;;;;;9.80;3.67;;;12.10;94.30;;;;;;4990326;28;20646;-76
2022/10/08 05:56:03;;;;;;;5.40;2.97;;;12.10;94.20;;;;;;4997943;28;20426;-76
2022/10/08 05:58:30;;;;;;;5.70;2.80;;;12.10;94.30;;;;;;4978951;28;20901;-76
2022/10/08 06:00:57;;;;;;;5.85;3.40;;;12.00;94.30;;;;;;4980882;28;20068;-76
2022/10/08 06:03:23;;;;;;;7.80;3.15;;;12.10;94.40;;;;;;4996331;28;20532;-76
2022/10/08 06:05:49;;;;;;;7.15;3.60;;;12.10;94.40;;;;;;4992668;28;20030;-77
2022/10/08 06:08:15;;;;;;;6.72;3.78;;;12.00;94.50;;;;;;4993750;28;20030;-77
2022/10/08 06:10:51;;;;;;;5.25;3.35;;;12.10;94.50;;;;;;4990874;28;20093;-76
2022/10/08 06:13:17;;;;;;;4.50;3.20;;;12.00;94.50;;;;;;4998956;28;20644;-77
2022/10/08 06:15:52;;;;;;;9.15;3.53;;;12.10;94.60;;;;;;4992223;28;20036;-77
2022/10/08 06:18:18;;;;;;;6.28;3.25;;;12.10;94.60;;;;;;5000310;28;20801;-77
2022/10/08 06:20:43;;;;;;;4.95;3.10;;;12.00;94.50;;;;;;4994233;28;20034;-77
2022/10/08 06:23:09;;;;;;;9.13;3.70;;;12.10;94.60;;;;;;4989008;28;20053;-77
2022/10/08 06:25:36;;;;;;;4.93;3.17;;;12.10;94.60;;;;;;4993722;28;20937;-77
2022/10/08 06:28:02;;;;;;;5.68;2.72;;;12.10;94.60;;;;;;4994828;28;20117;-76
2022/10/08 06:30:27;;;;;;;6.20;3.03;;;12.10;94.60;;;;;;5000221;28;20100;-76
2022/10/08 06:32:53;;;;;;;8.65;3.38;;;12.00;94.60;;;;;;5002741;28;20115;-76
2022/10/08 06:35:19;;;;;;;4.70;3.03;;;12.10;94.60;;;;;;4996312;28;20033;-76
2022/10/08 06:37:48;;;;;;;6.68;3.50;;;12.10;94.60;;;;;;4977436;28;20054;-77
2022/10/08 06:40:14;;;;;;;9.65;4.13;;;12.10;94.50;;;;;;4990422;28;20188;-76
2022/10/08 06:42:40;;;;;;;5.10;3.65;;;12.20;94.50;;;;;;4997896;28;20113;-77
2022/10/08 06:45:06;;;;;;;5.55;3.75;;;12.10;94.50;;;;;;4998989;28;20116;-77
2022/10/08 06:47:32;;;;;;;4.63;3.17;;;12.20;94.60;;;;;;5001353;28;20037;-77
2022/10/08 06:49:57;;;;;;;6.30;3.53;;;12.20;94.60;;;;;;4991370;28;20038;-77
2022/10/08 06:52:23;;;;;;;7.30;3.78;;;12.20;94.70;;;;;;4989878;28;20061;-77
2022/10/08 06:54:49;;;;;;;6.05;3.45;;;12.30;94.70;;;;;;4996005;28;20645;-77
2022/10/08 06:57:15;;;;;;;5.75;3.05;;;12.30;94.80;;;;;;4991377;28;20038;-79
2022/10/08 06:59:41;;;;;;;5.30;3.67;;;12.40;94.70;;;;;;4994631;28;20038;-79
2022/10/08 07:02:11;;;;;;;5.13;3.28;;;12.40;94.60;;;;;;4998366;28;20026;-79
2022/10/08 07:04:36;;;;;;;6.05;2.92;;;12.50;94.50;;;;;;4991239;28;20022;-79
2022/10/08 07:07:03;;;;;;;4.55;2.65;;;12.50;94.40;;;;;;5000709;28;20508;-79
2022/10/08 07:09:28;;;;;;;12.10;3.65;;;12.50;94.40;;;;;;4997928;28;20038;-79
2022/10/08 07:11:54;;;;;;;5.43;3.22;;;12.60;94.40;;;;;;4995331;28;20040;-79
2022/10/08 07:14:20;;;;;;;6.88;3.03;;;12.60;94.40;;;;;;4995022;28;20034;-79
2022/10/08 07:16:46;;;;;;;9.23;3.15;;;12.70;94.40;;;;;;4994114;28;20478;-79
2022/10/08 07:19:12;;;;;;;5.75;2.85;;;12.80;94.60;;;;;;5000239;28;20034;-79
2022/10/08 07:21:39;;;;;;;6.55;2.88;;;13.00;94.50;;;;;;5002546;28;20046;-79
2022/10/08 07:24:05;;;;;;;9.43;3.30;;;13.10;94.30;;;;;;4994057;28;20030;-79
2022/10/08 07:26:33;;;;;;;5.60;2.70;;;13.30;93.80;;;;;;4988177;28;20037;-79
2022/10/08 07:29:05;;;;;;;7.85;3.28;;;13.40;93.50;;;;;;4992413;28;20081;-80
2022/10/08 07:31:32;;;;;;;11.43;3.05;;;13.50;92.90;;;;;;4997523;28;20034;-80
2022/10/08 07:34:02;;;;;;;5.78;2.38;;;13.60;92.90;;;;;;4985396;28;20125;-79
2022/10/08 07:36:29;;;;;;;12.82;2.70;;;13.70;92.70;;;;;;5000550;28;20042;-80
2022/10/08 07:38:56;;;;;;;6.18;2.35;;;13.80;92.50;;;;;;4993005;28;20037;-79
2022/10/08 07:41:23;;;;;;;7.25;2.45;;;13.90;92.00;;;;;;4995529;28;20042;-79
2022/10/08 07:43:51;;;;;;;6.97;2.50;;;14.00;92.00;;;;;;5000274;28;20030;-79
2022/10/08 07:46:17;;;;;;;9.55;3.38;;;14.10;91.90;;;;;;5002150;28;20038;-79
2022/10/08 07:48:43;;;;;;;3.55;2.10;;;14.20;91.60;;;;;;4993661;28;20037;-79
2022/10/08 07:51:16;;;;;;;10.27;2.47;;;14.40;91.00;;;;;;5001990;28;20116;-79
2022/10/08 07:53:43;;;;;;;8.35;2.08;;;14.50;91.00;;;;;;5000117;28;20639;-80
2022/10/08 07:56:11;;;;;;;8.20;2.50;;;14.50;90.50;;;;;;5000168;28;20030;-80
2022/10/08 07:58:37;;;;;;;11.00;2.60;;;14.60;90.30;;;;;;4998956;28;20042;-79
2022/10/08 08:01:05;;;;;;;8.38;2.03;;;14.70;90.30;;;;;;4998502;28;20033;-80
2022/10/08 08:03:32;;;;;;;11.55;2.28;;;14.80;90.20;;;;;;4993480;28;20034;-79
2022/10/08 08:06:08;;;;;;;6.80;1.92;;;14.90;90.10;;;;;;4988144;28;20021;-79
2022/10/08 08:08:35;;;;;;;8.88;2.17;;;15.00;89.40;;;;;;4994081;28;20041;-80
2022/10/08 08:11:03;;;;;;;7.95;2.28;;;15.10;88.90;;;;;;4995746;28;20040;-79
2022/10/08 08:13:31;;;;;;;9.35;2.25;;;15.20;88.40;;;;;;4999729;28;20062;-79
2022/10/08 08:15:58;;;;;;;8.07;2.03;;;15.30;88.60;;;;;;5001586;28;20025;-79
2022/10/08 08:18:27;;;;;;;7.88;2.05;;;15.40;88.90;;;;;;4991499;28;20040;-79
2022/10/08 08:21:00;;;;;;;8.65;1.75;;;15.40;88.10;;;;;;4999810;28;20091;-79
2022/10/08 08:23:34;;;;;;;5.95;1.95;;;15.50;87.80;;;;;;5001243;28;20034;-80
2022/10/08 08:26:05;;;;;;;8.80;1.85;;;15.60;88.10;;;;;;5001896;28;20030;-80
2022/10/08 08:28:31;;;;;;;6.70;2.00;;;15.80;87.80;;;;;;4981075;28;20026;-79
2022/10/08 08:31:27;;;;;;;10.50;2.00;;;16.10;86.70;;;;;;4997906;28;20651;-79
2022/10/08 08:33:57;;;;;;;8.73;2.00;;;16.40;83.90;;;;;;4987643;28;20045;-79
2022/10/08 08:36:26;;;;;;;6.68;1.77;;;16.40;83.30;;;;;;5005391;28;20033;-79
2022/10/08 08:38:52;;;;;;;9.20;1.90;;;16.50;82.40;;;;;;5001384;28;20131;-79
2022/10/08 08:41:41;;;;;;;9.30;1.67;;;16.60;82.10;;;;;;4999207;28;20827;-79
2022/10/08 08:44:16;;;;;;;10.40;2.00;;;16.70;81.70;;;;;;4983721;28;20030;-79
2022/10/08 08:47:20;;;;;;;8.43;2.05;;;16.80;81.10;;;;;;4986470;28;20029;-78
2022/10/08 08:49:56;;;;;;;7.72;1.85;;;16.90;80.70;;;;;;4984245;28;20082;-78
2022/10/08 08:52:27;;;;;;;;;;;17.00;81.30;;;;;;4995854;28;20571;-79
2022/10/08 08:54:54;;;;;;;9.77;2.08;;;17.10;81.30;;;;;;4995912;28;19914;-79
2022/10/08 08:57:47;;;;;;;;;;;;;;;;;;;;;
2022/10/08 09:00:21;;;;;;;8.05;2.22;;;17.40;80.10;;;;;;5002079;28;20135;-79
2022/10/08 09:03:00;;;;;;;4.95;2.20;;;17.50;79.40;;;;;;5003602;28;20069;-79
2022/10/08 09:05:31;;;;;;;9.27;2.20;;;17.70;78.60;;;;;;5003122;28;20630;-79
2022/10/08 09:08:15;;;;;;;8.90;1.85;;;17.90;78.00;;;;;;5002247;28;20026;-79
2022/10/08 09:11:00;;;;;;;7.45;2.30;;;18.00;77.70;;;;;;4979984;28;20692;-79
2022/10/08 09:13:47;;;;;;;8.38;2.10;;;18.10;77.00;;;;;;4995015;28;20046;-79
2022/10/08 09:16:14;;;;;;;8.77;2.67;;;18.20;75.70;;;;;;4997193;28;20044;-79
2022/10/08 09:18:48;;;;;;;10.20;3.00;;;18.20;75.80;;;;;;5001711;28;20042;-79
2022/10/08 09:21:17;;;;;;;7.53;2.70;;;18.20;76.90;;;;;;4997837;28;20859;-78
2022/10/08 09:23:45;;;;;;;8.30;3.63;;;18.20;75.90;;;;;;4991841;28;20045;-79
2022/10/08 09:26:18;;;;;;;10.38;3.00;;;18.20;75.00;;;;;;4996234;28;20108;-79
2022/10/08 09:28:53;;;;;;;9.00;2.67;;;18.20;75.60;;;;;;5004761;28;20038;-78
2022/10/08 09:31:39;;;;;;;17.10;2.92;;;18.10;74.70;;;;;;5002618;28;20485;-78
2022/10/08 09:34:14;;;;;;;11.13;2.60;;;18.20;76.00;;;;;;4994886;28;20077;-78
2022/10/08 09:36:49;;;;;;;6.47;2.28;;;18.20;75.00;;;;;;4994170;28;20041;-79
2022/10/08 09:39:24;;;;;;;12.65;2.50;;;18.20;75.80;;;;;;4996202;28;20034;-76
2022/10/08 09:42:13;;;;;;;8.75;2.33;;;18.30;75.60;;;;;;4995148;28;20037;-74
2022/10/08 09:44:43;;;;;;;8.30;2.83;;;18.40;75.80;;;;;;4989689;28;20799;-74
2022/10/08 09:47:17;;;;;;;12.70;2.95;;;18.20;73.80;;;;;;4996325;28;20080;-76
2022/10/08 09:49:48;;;;;;;9.18;2.67;;;17.90;76.00;;;;;;4996188;28;20037;-77
2022/10/08 09:52:20;;;;;;;9.80;2.88;;;17.80;76.70;;;;;;4993966;28;20053;-77
2022/10/08 09:55:15;;;;;;;10.40;3.25;;;17.80;77.10;;;;;;4998951;28;20092;-78
2022/10/08 09:57:47;;;;;;;8.20;2.38;;;17.70;77.10;;;;;;4978591;28;20058;-78
2022/10/08 10:00:42;;;;;;;5.25;2.17;;;17.70;77.10;;;;;;4976533;28;20397;-78
2022/10/08 10:03:16;;;;;;;10.05;2.40;;;17.70;78.10;;;;;;4978400;28;20068;-79
2022/10/08 10:05:42;;;;;;;9.43;2.55;;;17.70;78.60;;;;;;4991305;28;20018;-76
2022/10/08 10:08:40;;;;;;;5.70;1.83;;;17.60;78.60;;;;;;4992856;28;20034;-76
2022/10/08 10:11:07;;;;;;;5.20;2.25;;;17.70;78.90;;;;;;4997133;28;20241;-76
2022/10/08 10:13:36;;;;;;;9.38;2.75;;;17.70;78.60;;;;;;4999315;28;20038;-76
2022/10/08 10:16:29;;;;;;;9.57;2.75;;;17.60;77.70;;;;;;4996177;28;20038;-76
2022/10/08 10:18:57;;;;;;;9.02;2.90;;;17.60;77.10;;;;;;4986676;28;20068;-77
2022/10/08 10:21:46;;;;;;;8.73;3.30;;;17.60;77.00;;;;;;4991766;28;20053;-77
2022/10/08 10:24:35;;;;;;;7.72;2.72;;;17.50;77.90;;;;;;4981470;28;20437;-75
2022/10/08 10:27:28;;;;;;;5.40;2.58;;;17.40;78.60;;;;;;4992794;28;20104;-76
2022/10/08 10:30:08;;;;;;;6.53;2.75;;;17.40;79.10;;;;;;4997722;28;20095;-80
2022/10/08 10:32:43;;;;;;;9.32;2.78;;;17.30;78.50;;;;;;4992540;28;20472;-79
2022/10/08 10:35:23;;;;;;;8.32;2.40;;;17.20;78.70;;;;;;4998249;28;20077;-79
2022/10/08 10:38:14;;;;;;;10.27;3.30;;;17.20;79.90;;;;;;4999730;28;20379;-79
2022/10/08 10:40:49;;;;;;;8.85;2.63;;;17.20;79.70;;;;;;4983242;28;20046;-70
2022/10/08 10:43:36;;;;;;;10.32;3.00;;;17.10;79.70;;;;;;4991077;28;20065;-78
2022/10/08 10:46:30;;;;;;;8.65;3.47;;;17.10;80.00;;;;;;4985555;28;20037;-78
2022/10/08 10:48:56;;;;;;;8.88;3.42;;;17.10;79.70;;;;;;4996714;28;20032;-76
2022/10/08 10:51:42;;;;;;;10.73;3.22;;;17.10;79.70;;;;;;4998438;28;20033;-76
2022/10/08 10:54:17;;;;;;;5.53;2.65;;;17.00;80.00;;;;;;4983372;28;20422;-77
2022/10/08 10:57:03;;;;;;;8.90;3.50;;;17.00;80.30;;;;;;4995007;28;20044;-78
2022/10/08 10:59:54;;;;;;;8.38;2.92;;;16.90;80.70;;;;;;4983835;28;20530;-78
2022/10/08 11:02:37;;;;;;;9.52;3.50;;;16.80;80.90;;;;;;4990664;28;20056;-78
2022/10/08 11:05:03;;;;;;;6.75;2.88;;;16.80;82.00;;;;;;5001509;28;20056;-76
2022/10/08 11:07:44;;;;;;;10.05;3.13;;;16.70;82.60;;;;;;4998213;28;20018;-77
2022/10/08 11:10:32;;;;;;;13.57;3.78;;;16.60;83.90;;;;;;4991732;28;20034;-79
2022/10/08 11:13:09;;;;;;;8.68;3.83;;;16.70;85.10;;;;;;4999722;28;20117;-78
2022/10/08 11:15:48;;;;;;;10.80;3.33;;;16.60;85.70;;;;;;5056867;28;20410;-79
2022/10/08 11:18:24;;;;;;;10.07;3.53;;;16.50;86.20;;;;;;5049352;28;20029;-75
2022/10/08 11:20:58;;;;;;;;;;;16.50;87.30;;;;;;5048674;28;20024;-66
2022/10/08 11:23:40;;;;;;;9.38;4.35;;;16.50;88.00;;;;;;5042716;28;20015;-79
2022/10/08 11:26:18;;;;;;;14.20;4.63;;;16.40;88.50;;;;;;5043061;28;20369;-78
2022/10/08 11:28:59;;;;;;;7.82;4.10;;;16.40;89.40;;;;;;5049873;28;21055;-78
2022/10/08 11:31:42;;;;;;;12.05;4.95;;;16.40;90.00;;;;;;5048436;28;20062;-78
2022/10/08 11:34:27;;;;;;;7.13;3.85;;;16.40;90.30;;;;;;5044044;28;20052;-79
2022/10/08 11:37:31;;;;;;;10.38;4.95;;;16.30;90.60;;;;;;5045936;28;20500;-69
2022/10/08 11:40:01;;;;;;;7.60;4.35;;;16.30;90.80;;;;;;5044958;28;20037;-80
2022/10/08 11:43:01;;;;;;;12.23;4.47;;;16.30;91.00;;;;;;5051499;28;20070;-73
2022/10/08 11:45:44;;;;;;;8.90;4.45;;;16.30;91.30;;;;;;5053755;28;20037;-78
2022/10/08 11:48:31;;;;;;;13.98;4.63;;;16.40;91.50;;;;;;5042888;28;20033;-78
2022/10/08 11:51:18;;;;;;;11.93;4.57;;;16.40;90.70;;;;;;5045910;28;20040;-77
2022/10/08 11:54:08;;;;;;;9.35;3.85;;;16.50;90.70;;;;;;5046808;28;20033;-78
2022/10/08 11:56:43;;;;;;;7.05;3.40;;;16.50;90.30;;;;;;5046966;28;20060;-78
2022/10/08 11:59:35;;;;;;;9.35;3.22;;;16.60;90.60;;;;;;5045250;28;20036;-77
2022/10/08 12:02:04;;;;;;;9.57;3.65;;;16.70;89.90;;;;;;5047841;28;20097;-77
2022/10/08 12:04:34;;;;;;;5.45;2.75;;;16.80;88.80;;;;;;5042353;28;20230;-77
2022/10/08 12:07:17;;;;;;;8.50;2.70;;;16.90;88.80;;;;;;5049518;28;20056;-76
2022/10/08 12:10:18;;;;;;;5.20;2.35;;;17.00;87.30;;;;;;5048818;28;20032;-77
2022/10/08 12:12:49;;;;;;;5.78;2.63;;;17.00;86.10;;;;;;5060967;28;20524;-77
2022/10/08 12:15:26;;;;;;;5.78;2.40;;;17.10;84.80;;;;;;5041978;28;20124;-70
2022/10/08 12:17:52;;;;;;;8.75;2.50;;;17.10;85.20;;;;;;5054042;28;20029;-79
2022/10/08 12:20:26;;;;;;;12.40;2.75;;;17.20;85.90;;;;;;5044946;28;20030;-79
2022/10/08 12:23:08;;;;;;;6.53;2.30;;;17.40;84.90;;;;;;5052823;28;20032;-79
2022/10/08 12:25:37;;;;;;;5.43;2.50;;;17.50;83.40;;;;;;5047209;28;20041;-79
2022/10/08 12:28:18;;;;;;;8.40;2.65;;;17.40;81.40;;;;;;5036921;28;20034;-76
2022/10/08 12:30:59;;;;;;;5.65;2.28;;;17.40;82.20;;;;;;5027955;28;20118;-76
2022/10/08 12:33:25;;;;;;;2.92;2.03;;;17.40;82.50;;;;;;5032013;28;20119;-76
2022/10/08 12:36:00;;;;;;;4.97;1.80;;;17.40;83.10;;;;;;5029219;28;20788;-76
2022/10/08 12:38:28;;;;;;;7.10;2.00;;;17.30;81.50;;;;;;5028716;28;20132;-76
2022/10/08 12:41:45;;;;;;;6.97;2.42;;;17.30;82.00;;;;;;5031655;28;20033;-76
2022/10/08 12:44:28;;;;;;;5.57;2.05;;;17.30;82.30;;;;;;5039030;28;20083;-77
2022/10/08 12:47:12;;;;;;;5.32;2.15;;;17.30;80.40;;;;;;5037677;28;20114;-76
2022/10/08 12:49:48;;;;;;;4.53;2.17;;;17.30;81.20;;;;;;5033020;28;20040;-76
2022/10/08 12:52:16;;;;;;;7.03;2.00;;;17.40;81.10;;;;;;5034856;28;20523;-81
2022/10/08 12:54:53;;;;;;;5.60;1.70;;;17.60;80.50;;;;;;5034812;28;20037;-78
2022/10/08 12:57:28;;;;;;;3.97;1.70;;;17.70;79.40;;;;;;5034247;28;20029;-78
2022/10/08 12:59:56;;;;;;;4.47;1.77;;;17.70;79.50;;;;;;5038104;28;20033;-78
2022/10/08 13:02:39;;;;;;;6.28;1.60;;;17.70;76.20;;;;;;5040396;28;20112;-78
2022/10/08 13:05:25;;;;;;;6.05;1.85;;;17.70;77.10;;;;;;5031894;28;20037;-78
2022/10/08 13:07:51;;;;;;;7.47;2.10;;;17.80;76.50;;;;;;5035659;28;20063;-78
2022/10/08 13:10:23;;;;;;;6.63;1.70;;;17.80;76.70;;;;;;5034141;28;20032;-78
2022/10/08 13:13:04;;;;;;;5.20;1.70;;;17.70;78.00;;;;;;5033245;28;20041;-80
2022/10/08 13:15:32;;;;;;;4.00;1.50;;;17.70;76.30;;;;;;5034752;28;20066;-80
2022/10/08 13:17:58;;;;;;;7.40;2.00;;;17.70;75.90;;;;;;5034092;28;20021;-80